Time;durP1;ratioP1;P1;durP2;ratioP2;P2;SDS_P1;SDS_P2;PMS_P1;PMS_P2;Temp;Humidity;BMP_temperature;BMP_pressure;BME280_temperature;BME280_humidity;BME280_pressure;Samples;Min_cycle;Max_cycle;Signal;HPM_P1;HPM_P2
2022/04/11 00:01:30;;;;;;;;;;;22.10;35.60;;;;;;6274099;28;21513;-45
2022/04/11 00:04:32;;;;;;;;;;;22.00;35.50;;;;;;6275099;28;19927;-50
2022/04/11 00:07:33;;;;;;;;;;;22.00;35.50;;;;;;6274093;27;20022;-47
2022/04/11 00:10:34;;;;;;;;;;;22.10;35.60;;;;;;6290125;27;19996;-44
2022/04/11 00:13:36;;;;;;;;;;;22.00;35.60;;;;;;6282814;28;20973;-48
2022/04/11 00:16:38;;;;;;;;;;;22.20;35.70;;;;;;6271708;28;20898;-45
2022/04/11 00:19:40;;;;;;;;;;;22.00;35.60;;;;;;6276020;28;19928;-46
2022/04/11 00:22:41;;;;;;;;;;;22.10;35.60;;;;;;6262717;28;19960;-44
2022/04/11 00:25:42;;;;;;;;;;;22.00;35.60;;;;;;6274031;28;19959;-45
2022/04/11 00:28:44;;;;;;;;;;;21.80;35.50;;;;;;6276957;28;19935;-45
2022/04/11 00:31:46;;;;;;;;;;;21.90;35.50;;;;;;6273675;28;20806;-49
2022/04/11 00:34:48;;;;;;;;;;;21.90;35.50;;;;;;6262104;28;20030;-50
2022/04/11 00:37:49;;;;;;;;;;;21.80;35.40;;;;;;6287978;27;19935;-46
2022/04/11 00:40:50;;;;;;;;;;;22.00;35.50;;;;;;6291544;28;20052;-45
2022/04/11 00:43:52;;;;;;;;;;;22.00;35.50;;;;;;6298322;27;20128;-45
2022/04/11 00:46:54;;;;;;;;;;;21.80;35.50;;;;;;6284869;27;20288;-47
2022/04/11 00:49:56;;;;;;;;;;;21.80;35.40;;;;;;6275060;28;21753;-48
2022/04/11 00:52:59;;;;;;;;;;;21.90;35.50;;;;;;6284950;28;19935;-47
2022/04/11 00:56:01;;;;;;;;;;;21.90;35.60;;;;;;6261145;28;19930;-46
2022/04/11 00:59:03;;;;;;;;;;;22.00;35.50;;;;;;6272553;28;20030;-46
2022/04/11 01:02:05;;;;;;;;;;;21.90;35.60;;;;;;6280286;28;20687;-45
2022/04/11 01:05:08;;;;;;;;;;;21.90;35.50;;;;;;6277311;28;19927;-45
2022/04/11 01:08:10;;;;;;;;;;;21.80;35.40;;;;;;6278583;28;19919;-45
2022/04/11 01:11:11;;;;;;;;;;;21.90;35.50;;;;;;6289800;27;20991;-46
2022/04/11 01:14:13;;;;;;;;;;;21.70;35.40;;;;;;6283028;28;19924;-46
2022/04/11 01:17:15;;;;;;;;;;;21.80;35.40;;;;;;6298298;27;19928;-47
2022/04/11 01:20:16;;;;;;;;;;;21.90;35.50;;;;;;6298449;27;19923;-46
2022/04/11 01:23:18;;;;;;;;;;;21.80;35.50;;;;;;6297258;27;19927;-48
2022/04/11 01:26:22;;;;;;;;;;;21.90;35.50;;;;;;6280144;28;19927;-45
2022/04/11 01:29:24;;;;;;;;;;;21.90;35.50;;;;;;6274029;27;20522;-46
2022/04/11 01:32:26;;;;;;;;;;;21.90;35.50;;;;;;6291482;27;20010;-46
2022/04/11 01:35:27;;;;;;;;;;;21.80;35.40;;;;;;6278464;28;19997;-47
2022/04/11 01:38:37;;;;;;;;;;;22.00;35.60;;;;;;6289331;28;19928;-44
2022/04/11 01:41:39;;;;;;;;;;;21.90;35.50;;;;;;6282485;28;19996;-45
2022/04/11 01:44:41;;;;;;;;;;;21.80;35.50;;;;;;6257306;28;20034;-48
2022/04/11 01:47:43;;;;;;;;;;;21.90;35.50;;;;;;6296113;27;20116;-46
2022/04/11 01:50:45;;;;;;;;;;;21.90;35.50;;;;;;6287479;28;19927;-45
2022/04/11 01:53:47;;;;;;;;;;;21.70;35.50;;;;;;6289835;27;20048;-46
2022/04/11 01:56:49;;;;;;;;;;;21.90;35.50;;;;;;6300310;28;20068;-46
2022/04/11 01:59:51;;;;;;;;;;;21.80;35.50;;;;;;6289152;28;19970;-45
2022/04/11 02:02:53;;;;;;;;;;;21.60;35.40;;;;;;6304770;27;19934;-46
2022/04/11 02:05:56;;;;;;;;;;;21.60;35.40;;;;;;6298841;28;19930;-46
2022/04/11 02:08:58;;;;;;;;;;;21.80;35.50;;;;;;6280851;28;20171;-45
2022/04/11 02:12:00;;;;;;;;;;;21.70;35.40;;;;;;6292232;27;20020;-44
2022/04/11 02:15:02;;;;;;;;;;;21.50;35.30;;;;;;6301300;27;19931;-46
2022/04/11 02:18:03;;;;;;;;;;;21.80;35.50;;;;;;6289859;27;20115;-45
2022/04/11 02:21:05;;;;;;;;;;;21.40;35.20;;;;;;6279127;27;20046;-45
2022/04/11 02:24:07;;;;;;;;;;;21.70;35.50;;;;;;6262931;28;19928;-45
2022/04/11 02:27:08;;;;;;;;;;;21.70;35.40;;;;;;6292134;27;19919;-45
2022/04/11 02:30:11;;;;;;;;;;;21.80;35.50;;;;;;6296782;27;19984;-47
2022/04/11 02:33:12;;;;;;;;;;;21.70;35.40;;;;;;6292382;28;20054;-44
2022/04/11 02:36:14;;;;;;;;;;;21.70;35.40;;;;;;6262648;28;20327;-45
2022/04/11 02:39:16;;;;;;;;;;;21.70;35.50;;;;;;6276734;28;19931;-45
2022/04/11 02:42:20;;;;;;;;;;;21.80;35.50;;;;;;6281894;28;20068;-45
2022/04/11 02:45:22;;;;;;;;;;;21.70;35.50;;;;;;6277637;27;19923;-46
2022/04/11 02:48:23;;;;;;;;;;;21.70;35.50;;;;;;6283226;27;20685;-46
2022/04/11 02:51:31;;;;;;;;;;;21.70;35.40;;;;;;6273292;28;20261;-46
2022/04/11 02:54:39;;;;;;;;;;;21.60;35.40;;;;;;6279792;27;19965;-46
2022/04/11 02:57:40;;;;;;;;;;;21.70;35.50;;;;;;6285610;27;20480;-44
2022/04/11 03:00:42;;;;;;;;;;;21.60;35.40;;;;;;6271151;28;20736;-47
2022/04/11 03:03:44;;;;;;;;;;;21.70;35.50;;;;;;6280120;28;19939;-46
2022/04/11 03:06:48;;;;;;;;;;;21.60;35.50;;;;;;6276422;28;19931;-46
2022/04/11 03:09:50;;;;;;;;;;;21.70;35.50;;;;;;6285637;28;19928;-45
2022/04/11 03:12:54;;;;;;;;;;;21.60;35.40;;;;;;6270285;28;20303;-46
2022/04/11 03:15:55;;;;;;;;;;;21.50;35.40;;;;;;6273199;28;20042;-45
2022/04/11 03:18:57;;;;;;;;;;;21.50;35.40;;;;;;6288662;28;20046;-45
2022/04/11 03:21:59;;;;;;;;;;;21.80;35.50;;;;;;6276045;28;20018;-46
2022/04/11 03:25:02;;;;;;;;;;;21.50;35.40;;;;;;6284579;28;20748;-46
2022/04/11 03:28:03;;;;;;;;;;;21.50;35.40;;;;;;6277590;27;20257;-45
2022/04/11 03:31:07;;;;;;;;;;;21.60;35.50;;;;;;6282272;28;19923;-44
2022/04/11 03:34:09;;;;;;;;;;;21.60;35.50;;;;;;6274662;28;20339;-45
2022/04/11 03:37:12;;;;;;;;;;;21.40;35.30;;;;;;6279473;28;20458;-44
2022/04/11 03:40:21;;;;;;;;;;;21.60;35.40;;;;;;6277975;27;20098;-47
2022/04/11 03:43:23;;;;;;;;;;;21.50;35.40;;;;;;6277474;28;20403;-45
2022/04/11 03:46:24;;;;;;;;;;;21.50;35.40;;;;;;6269921;27;20209;-46
2022/04/11 03:49:25;;;;;;;;;;;21.40;35.30;;;;;;6286146;28;19927;-44
2022/04/11 03:52:27;;;;;;;;;;;21.50;36.00;;;;;;6290051;27;19923;-45
2022/04/11 03:55:32;;;;;;;;;;;21.50;35.40;;;;;;6278305;27;20301;-45
2022/04/11 03:58:33;;;;;;;;;;;21.40;35.30;;;;;;6273539;28;19927;-48
2022/04/11 04:01:38;;;;;;;;;;;21.50;35.30;;;;;;6277631;27;19928;-45
2022/04/11 04:04:40;;;;;;;;;;;21.60;35.40;;;;;;6286588;27;20229;-45
2022/04/11 04:07:42;;;;;;;;;;;21.60;35.40;;;;;;6277852;28;20391;-46
2022/04/11 04:10:44;;;;;;;;;;;21.50;35.30;;;;;;6284943;27;20470;-47
2022/04/11 04:13:46;;;;;;;;;;;21.50;35.30;;;;;;6276788;28;20318;-44
2022/04/11 04:16:47;;;;;;;;;;;21.40;35.30;;;;;;6279137;27;19934;-44
2022/04/11 04:19:52;;;;;;;;;;;21.40;35.30;;;;;;6276424;27;19965;-44
2022/04/11 04:22:57;;;;;;;;;;;21.50;35.40;;;;;;6262943;27;20405;-44
2022/04/11 04:26:06;;;;;;;;;;;21.40;35.30;;;;;;6273132;28;19931;-45
2022/04/11 04:29:07;;;;;;;;;;;21.30;35.20;;;;;;6283673;27;20018;-44
2022/04/11 04:32:14;;;;;;;;;;;21.40;35.30;;;;;;6244845;28;20357;-45
2022/04/11 04:35:16;;;;;;;;;;;21.40;35.30;;;;;;6243233;28;20069;-45
2022/04/11 04:38:21;;;;;;;;;;;21.50;35.30;;;;;;6263308;28;19927;-45
2022/04/11 04:41:29;;;;;;;;;;;21.30;35.30;;;;;;6272352;27;20115;-46
2022/04/11 04:44:32;;;;;;;;;;;21.50;35.40;;;;;;6275255;27;20215;-45
2022/04/11 04:47:36;;;;;;;;;;;21.40;35.40;;;;;;6270998;27;19930;-45
2022/04/11 04:50:38;;;;;;;;;;;21.50;35.40;;;;;;6259754;27;20127;-48
2022/04/11 04:53:43;;;;;;;;;;;21.40;35.30;;;;;;6264849;28;20349;-46
2022/04/11 04:56:49;;;;;;;;;;;21.50;35.40;;;;;;6247774;28;19982;-46
2022/04/11 04:59:58;;;;;;;;;;;21.50;35.40;;;;;;6249400;27;20138;-51
2022/04/11 05:03:11;;;;;;;;;;;21.40;35.30;;;;;;6277069;27;19922;-45
2022/04/11 05:06:13;;;;;;;;;;;21.40;35.40;;;;;;6260339;28;20703;-45
2022/04/11 05:09:15;;;;;;;;;;;21.40;35.30;;;;;;6276213;28;19919;-48
2022/04/11 05:12:21;;;;;;;;;;;21.60;35.40;;;;;;6287214;27;19959;-46
2022/04/11 05:15:23;;;;;;;;;;;21.50;35.40;;;;;;6270376;28;20268;-48
2022/04/11 05:18:30;;;;;;;;;;;21.40;35.30;;;;;;6283636;27;19923;-46
2022/04/11 05:21:32;;;;;;;;;;;21.30;35.30;;;;;;6270831;28;19924;-46
2022/04/11 05:24:38;;;;;;;;;;;21.70;35.50;;;;;;6261776;28;19962;-48
2022/04/11 05:27:40;;;;;;;;;;;21.20;35.30;;;;;;6274652;28;19928;-47
2022/04/11 05:30:42;;;;;;;;;;;21.20;35.30;;;;;;6262074;28;20019;-45
2022/04/11 05:33:44;;;;;;;;;;;21.40;35.40;;;;;;6234525;27;19928;-46
2022/04/11 05:36:50;;;;;;;;;;;21.40;35.40;;;;;;6259698;28;19928;-45
2022/04/11 05:39:51;;;;;;;;;;;21.30;35.40;;;;;;6272332;28;19927;-45
2022/04/11 05:42:56;;;;;;;;;;;21.40;35.30;;;;;;6263563;28;19928;-50
2022/04/11 05:46:01;;;;;;;;;;;21.40;35.30;;;;;;6258838;27;21126;-45
2022/04/11 05:49:05;;;;;;;;;;;21.50;35.30;;;;;;6277233;27;19997;-48
2022/04/11 05:52:07;;;;;;;;;;;21.40;35.20;;;;;;6275441;27;19953;-45
2022/04/11 05:55:09;;;;;;;;;;;21.50;35.20;;;;;;6259238;27;19946;-46
2022/04/11 05:58:11;;;;;;;;;;;21.30;35.10;;;;;;6275321;27;19927;-45
2022/04/11 06:01:13;;;;;;;;;;;21.50;35.10;;;;;;6276907;27;19978;-45
2022/04/11 06:04:14;;;;;;;;;;;21.50;35.10;;;;;;6268997;28;19928;-45
2022/04/11 06:07:20;;;;;;;;;;;21.60;35.10;;;;;;6281472;27;19949;-48
2022/04/11 06:10:23;;;;;;;;;;;21.60;35.00;;;;;;6269091;28;19965;-48
2022/04/11 06:13:25;;;;;;;;;;;21.60;35.00;;;;;;6207080;28;20040;-46
2022/04/11 06:16:29;;;;;;;;;;;21.60;35.00;;;;;;6268473;27;20737;-45
2022/04/11 06:19:31;;;;;;;;;;;21.60;34.90;;;;;;6265895;27;19974;-46
2022/04/11 06:22:36;;;;;;;;;;;21.50;34.80;;;;;;6242106;27;20356;-44
2022/04/11 06:25:38;;;;;;;;;;;21.70;34.90;;;;;;6250094;27;19987;-45
2022/04/11 06:28:41;;;;;;;;;;;21.60;34.80;;;;;;6264592;27;20020;-48
2022/04/11 06:31:43;;;;;;;;;;;21.90;34.90;;;;;;6247862;27;19992;-47
2022/04/11 06:34:53;;;;;;;;;;;21.60;34.80;;;;;;6253025;27;19924;-47
2022/04/11 06:37:54;;;;;;;;;;;21.60;34.80;;;;;;6242125;28;21538;-47
2022/04/11 06:40:56;;;;;;;;;;;21.70;34.80;;;;;;6225696;28;20940;-46
2022/04/11 06:43:59;;;;;;;;;;;21.80;34.80;;;;;;6216326;28;20064;-48
2022/04/11 06:47:14;;;;;;;;;;;21.80;34.80;;;;;;6217561;27;19931;-48
2022/04/11 06:50:15;;;;;;;;;;;21.80;34.80;;;;;;6211280;28;19927;-48
2022/04/11 06:53:17;;;;;;;;;;;21.80;34.80;;;;;;6201259;27;19927;-53
2022/04/11 06:56:18;;;;;;;;;;;21.90;34.80;;;;;;6162434;28;19928;-45
2022/04/11 06:59:20;;;;;;;;;;;21.80;34.70;;;;;;6159699;28;20414;-46
2022/04/11 07:02:21;;;;;;;;;;;21.90;34.70;;;;;;6174735;27;21572;-46
2022/04/11 07:05:23;;;;;;;;;;;22.00;34.80;;;;;;6169668;27;21030;-46
2022/04/11 07:08:24;;;;;;;;;;;21.90;34.70;;;;;;6098462;28;19928;-48
2022/04/11 07:11:26;;;;;;;;;;;22.00;34.80;;;;;;6063915;28;19966;-47
2022/04/11 07:14:28;;;;;;;;;;;22.00;34.80;;;;;;6125639;27;21273;-48
2022/04/11 07:17:29;;;;;;;;;;;22.00;34.70;;;;;;6161517;27;19928;-47
2022/04/11 07:20:31;;;;;;;;;;;22.10;34.70;;;;;;6148136;27;19928;-47
2022/04/11 07:23:32;;;;;;;;;;;22.10;34.70;;;;;;6064812;27;19928;-49
2022/04/11 07:26:34;;;;;;;;;;;22.10;34.60;;;;;;6082711;28;19928;-49
2022/04/11 07:29:36;;;;;;;;;;;22.00;35.00;;;;;;6079696;28;19927;-49
2022/04/11 07:32:38;;;;;;;;;;;22.20;34.70;;;;;;6138924;27;19928;-48
2022/04/11 07:35:39;;;;;;;;;;;22.20;34.50;;;;;;6176946;27;19935;-49
2022/04/11 07:38:40;;;;;;;;;;;22.30;34.50;;;;;;6099639;27;19934;-46
2022/04/11 07:41:42;;;;;;;;;;;22.30;34.50;;;;;;6075519;28;19934;-52
2022/04/11 07:44:44;;;;;;;;;;;22.30;34.40;;;;;;6140667;27;19934;-49
2022/04/11 07:47:46;;;;;;;;;;;22.20;34.40;;;;;;6084427;27;19934;-49
2022/04/11 07:50:47;;;;;;;;;;;22.40;34.40;;;;;;6068279;27;20308;-49
2022/04/11 07:53:49;;;;;;;;;;;22.40;34.40;;;;;;6108422;28;20749;-47
2022/04/11 07:56:50;;;;;;;;;;;22.40;34.40;;;;;;6101535;28;21583;-50
2022/04/11 07:59:52;;;;;;;;;;;22.50;34.40;;;;;;6072625;27;19928;-51
2022/04/11 08:02:54;;;;;;;;;;;22.40;34.30;;;;;;6098893;27;19974;-48
2022/04/11 08:05:56;;;;;;;;;;;22.50;34.30;;;;;;6094530;28;19932;-47
2022/04/11 08:08:58;;;;;;;;;;;22.60;34.40;;;;;;6116814;28;20020;-49
2022/04/11 08:11:59;;;;;;;;;;;22.60;34.30;;;;;;6135543;28;20058;-50
2022/04/11 08:15:02;;;;;;;;;;;22.60;34.20;;;;;;6118716;28;19970;-46
2022/04/11 08:18:04;;;;;;;;;;;22.70;34.30;;;;;;6147463;27;19927;-47
2022/04/11 08:21:05;;;;;;;;;;;22.70;34.20;;;;;;6148215;27;20359;-50
2022/04/11 08:24:07;;;;;;;;;;;22.80;34.30;;;;;;6151043;27;20065;-48
2022/04/11 08:27:08;;;;;;;;;;;22.80;34.20;;;;;;6166639;28;19927;-52
2022/04/11 08:30:12;;;;;;;;;;;22.80;34.20;;;;;;6153912;28;21961;-54
2022/04/11 08:33:14;;;;;;;;;;;22.80;34.20;;;;;;6110706;27;19927;-52
2022/04/11 08:36:15;;;;;;;;;;;22.90;34.90;;;;;;6129915;27;19994;-55
2022/04/11 08:39:17;;;;;;;;;;;22.90;34.20;;;;;;6176091;27;19962;-49
2022/04/11 08:42:18;;;;;;;;;;;22.90;34.20;;;;;;6154742;27;19935;-47
2022/04/11 08:45:21;;;;;;;;;;;23.00;34.20;;;;;;6124792;28;21110;-48
2022/04/11 08:48:23;;;;;;;;;;;22.80;34.10;;;;;;6126554;28;19934;-48
2022/04/11 08:51:25;;;;;;;;;;;22.90;34.10;;;;;;6124610;28;19928;-48
2022/04/11 08:54:26;;;;;;;;;;;23.00;34.20;;;;;;6147861;27;19927;-50
2022/04/11 08:57:28;;;;;;;;;;;23.00;34.20;;;;;;6147491;27;19942;-47
2022/04/11 09:00:31;;;;;;;;;;;23.00;34.20;;;;;;6133132;28;20044;-48
2022/04/11 09:03:32;;;;;;;;;;;23.00;34.20;;;;;;6120630;27;19981;-51
2022/04/11 09:06:35;;;;;;;;;;;23.00;34.20;;;;;;6124920;27;19934;-49
2022/04/11 09:09:37;;;;;;;;;;;23.10;34.30;;;;;;6130192;27;19928;-47
2022/04/11 09:12:44;;;;;;;;;;;23.20;34.40;;;;;;6102859;28;19932;-48
2022/04/11 09:15:46;;;;;;;;;;;23.10;34.30;;;;;;6109158;27;19928;-49
2022/04/11 09:18:48;;;;;;;;;;;23.00;34.30;;;;;;6131393;28;29964;-48
2022/04/11 09:21:54;;;;;;;;;;;23.00;34.30;;;;;;6144077;28;20066;-48
2022/04/11 09:25:04;;;;;;;;;;;23.00;34.30;;;;;;6131998;28;19928;-46
2022/04/11 09:28:06;;;;;;;;;;;23.10;34.30;;;;;;6121803;27;19931;-47
2022/04/11 09:31:08;;;;;;;;;;;23.10;34.40;;;;;;6129973;27;19935;-47
2022/04/11 09:34:14;;;;;;;;;;;23.00;34.30;;;;;;6114678;28;19927;-52
2022/04/11 09:37:16;;;;;;;;;;;23.00;34.30;;;;;;6134592;27;19976;-47
2022/04/11 09:40:20;;;;;;;;;;;23.00;34.90;;;;;;6112268;28;21257;-51
2022/04/11 09:43:23;;;;;;;;;;;22.80;34.20;;;;;;6126199;28;19934;-52
2022/04/11 09:46:42;;;;;;;;;;;23.00;34.30;;;;;;6129666;27;19962;-52
2022/04/11 09:49:43;;;;;;;;;;;23.00;34.40;;;;;;6110525;27;20795;-53
2022/04/11 09:52:45;;;;;;;;;;;23.00;34.40;;;;;;6125240;27;19971;-51
2022/04/11 09:55:48;;;;;;;;;;;22.90;34.30;;;;;;6127145;27;19927;-47
2022/04/11 09:58:49;;;;;;;;;;;23.10;34.40;;;;;;6130111;27;19966;-46
2022/04/11 10:01:52;;;;;;;;;;;23.00;34.40;;;;;;6095054;28;20051;-48
2022/04/11 10:04:54;;;;;;;;;;;23.00;34.30;;;;;;6087058;28;20678;-51
2022/04/11 10:07:55;;;;;;;;;;;23.10;34.30;;;;;;6124158;27;20115;-49
2022/04/11 10:10:57;;;;;;;;;;;23.30;34.40;;;;;;6146755;27;19928;-52
2022/04/11 10:13:59;;;;;;;;;;;23.20;34.40;;;;;;6155980;27;21314;-49
2022/04/11 10:17:01;;;;;;;;;;;23.20;34.30;;;;;;6155514;27;20046;-50
2022/04/11 10:20:04;;;;;;;;;;;23.20;34.30;;;;;;6165217;27;19933;-59
2022/04/11 10:23:11;;;;;;;;;;;23.20;34.30;;;;;;6161344;28;19954;-52
2022/04/11 10:26:13;;;;;;;;;;;23.30;34.30;;;;;;6147878;28;19928;-51
2022/04/11 10:29:30;;;;;;;;;;;23.30;34.30;;;;;;6151339;28;20013;-53
2022/04/11 10:32:32;;;;;;;;;;;23.30;34.30;;;;;;6140556;28;20915;-54
2022/04/11 10:35:34;;;;;;;;;;;23.20;34.20;;;;;;6152421;28;19989;-52
2022/04/11 10:38:35;;;;;;;;;;;23.30;34.30;;;;;;6190641;27;20507;-53
2022/04/11 10:41:52;;;;;;;;;;;23.30;34.30;;;;;;6189721;27;19927;-56
2022/04/11 10:44:54;;;;;;;;;;;23.40;34.40;;;;;;6203805;27;21109;-52
2022/04/11 10:47:56;;;;;;;;;;;23.20;34.30;;;;;;6193412;27;22137;-50
2022/04/11 10:50:57;;;;;;;;;;;23.30;34.40;;;;;;6183666;28;20048;-49
2022/04/11 10:54:16;;;;;;;;;;;23.30;34.40;;;;;;6197497;28;19927;-57
2022/04/11 10:57:38;;;;;;;;;;;23.40;34.40;;;;;;6183140;28;19933;-51
2022/04/11 11:00:41;;;;;;;;;;;23.40;34.50;;;;;;6192091;27;19927;-48
2022/04/11 11:03:58;;;;;;;;;;;23.40;34.40;;;;;;6202248;27;20012;-51
2022/04/11 11:07:14;;;;;;;;;;;23.60;34.50;;;;;;6174224;28;20047;-50
2022/04/11 11:10:27;;;;;;;;;;;23.40;34.50;;;;;;6188320;27;20083;-50
2022/04/11 11:13:30;;;;;;;;;;;23.40;34.40;;;;;;6187541;28;19927;-49
2022/04/11 11:16:36;;;;;;;;;;;23.40;34.50;;;;;;6213690;27;20121;-51
2022/04/11 11:20:02;;;;;;;;;;;23.40;34.50;;;;;;6185054;27;21462;-48
2022/04/11 11:23:16;;;;;;;;;;;23.40;34.40;;;;;;6211012;27;19934;-54
2022/04/11 11:26:17;;;;;;;;;;;23.40;34.50;;;;;;6204839;28;19967;-49
2022/04/11 11:29:20;;;;;;;;;;;23.50;34.50;;;;;;6200581;28;21212;-50
2022/04/11 11:32:21;;;;;;;;;;;23.30;34.40;;;;;;6173319;27;20775;-53
2022/04/11 11:35:24;;;;;;;;;;;23.60;34.60;;;;;;6183549;27;20946;-50
2022/04/11 11:38:26;;;;;;;;;;;23.50;34.50;;;;;;6196606;27;22103;-50
2022/04/11 11:41:27;;;;;;;;;;;23.50;34.50;;;;;;6187372;27;19947;-48
2022/04/11 11:44:30;;;;;;;;;;;23.40;34.50;;;;;;6193108;27;21665;-49
2022/04/11 11:47:31;;;;;;;;;;;23.50;34.60;;;;;;6170131;27;19955;-49
2022/04/11 11:50:39;;;;;;;;;;;23.50;34.60;;;;;;6165721;27;19936;-50
2022/04/11 11:53:41;;;;;;;;;;;23.50;34.50;;;;;;6156724;27;20049;-54
2022/04/11 11:56:43;;;;;;;;;;;23.40;34.40;;;;;;6163575;27;20011;-50
2022/04/11 11:59:46;;;;;;;;;;;23.60;34.60;;;;;;6170180;27;23986;-48
2022/04/11 12:06:04;;;;;;;;;;;23.70;34.50;;;;;;6144046;27;21333;-48
2022/04/11 12:09:05;;;;;;;;;;;23.40;34.20;;;;;;6143444;27;19934;-48
2022/04/11 12:12:08;;;;;;;;;;;23.80;34.50;;;;;;6130930;27;19927;-48
2022/04/11 12:15:10;;;;;;;;;;;23.80;34.40;;;;;;6153674;27;20038;-50
2022/04/11 12:18:12;;;;;;;;;;;23.90;34.40;;;;;;6134303;27;19934;-49
2022/04/11 12:21:15;;;;;;;;;;;23.90;34.50;;;;;;6174041;27;19934;-48
2022/04/11 12:24:16;;;;;;;;;;;23.80;34.30;;;;;;6149926;27;19928;-48
2022/04/11 12:27:21;;;;;;;;;;;24.00;34.40;;;;;;6169244;27;21143;-48
2022/04/11 12:30:22;;;;;;;;;;;24.00;34.40;;;;;;6177624;27;20115;-50
2022/04/11 12:33:32;;;;;;;;;;;24.00;34.30;;;;;;6150811;27;19970;-46
2022/04/11 12:36:34;;;;;;;;;;;24.10;34.40;;;;;;6168391;28;19977;-48
2022/04/11 12:39:45;;;;;;;;;;;24.10;34.40;;;;;;6188765;27;19935;-46
2022/04/11 12:42:47;;;;;;;;;;;24.10;34.30;;;;;;6148779;28;19974;-49
2022/04/11 12:46:03;;;;;;;;;;;24.10;34.90;;;;;;6181024;27;19927;-51
2022/04/11 12:49:05;;;;;;;;;;;24.20;34.40;;;;;;6139575;28;19972;-49
2022/04/11 12:52:07;;;;;;;;;;;24.20;34.30;;;;;;6141247;28;19974;-46
2022/04/11 12:55:09;;;;;;;;;;;24.30;34.40;;;;;;6147292;28;19932;-47
2022/04/11 12:58:11;;;;;;;;;;;24.20;34.40;;;;;;6128514;28;21114;-46
2022/04/11 13:01:13;;;;;;;;;;;24.30;34.40;;;;;;6147507;28;21218;-45
2022/04/11 13:04:14;;;;;;;;;;;24.30;34.40;;;;;;6122805;28;19937;-50
2022/04/11 13:07:17;;;;;;;;;;;24.30;34.40;;;;;;6107924;28;19980;-46
2022/04/11 13:10:18;;;;;;;;;;;24.30;34.50;;;;;;6148393;28;20026;-48
2022/04/11 13:13:20;;;;;;;;;;;24.30;34.60;;;;;;6154972;28;19999;-47
2022/04/11 13:19:37;;;;;;;;;;;24.20;34.80;;;;;;6144422;27;19928;-49
2022/04/11 13:22:38;;;;;;;;;;;24.30;34.90;;;;;;6164144;27;19963;-48
2022/04/11 13:25:40;;;;;;;;;;;24.20;34.90;;;;;;6141404;27;19935;-51
2022/04/11 13:28:55;;;;;;;;;;;24.10;34.90;;;;;;6168606;27;19935;-49
2022/04/11 13:31:57;;;;;;;;;;;24.10;34.90;;;;;;6157669;27;21110;-47
2022/04/11 13:34:58;;;;;;;;;;;24.10;35.00;;;;;;6136818;27;19935;-47
2022/04/11 13:38:00;;;;;;;;;;;24.20;35.20;;;;;;6170472;27;19928;-52
2022/04/11 13:41:02;;;;;;;;;;;24.00;35.00;;;;;;6121927;27;20016;-46
2022/04/11 13:44:04;;;;;;;;;;;24.10;35.60;;;;;;6166961;27;22227;-46
2022/04/11 13:47:06;;;;;;;;;;;24.10;35.10;;;;;;6152074;27;20002;-45
2022/04/11 13:50:07;;;;;;;;;;;24.20;35.20;;;;;;6114158;28;21885;-47
2022/04/11 13:53:09;;;;;;;;;;;24.00;35.10;;;;;;6126850;27;20078;-48
2022/04/11 13:56:11;;;;;;;;;;;24.10;35.20;;;;;;6162105;27;21779;-46
2022/04/11 13:59:13;;;;;;;;;;;24.10;35.10;;;;;;6144498;27;19927;-49
2022/04/11 14:02:14;;;;;;;;;;;24.20;35.20;;;;;;6139847;27;19928;-47
2022/04/11 14:05:16;;;;;;;;;;;24.10;35.30;;;;;;6169068;27;19973;-48
2022/04/11 14:08:22;;;;;;;;;;;24.20;35.30;;;;;;6124566;28;19965;-45
2022/04/11 14:11:23;;;;;;;;;;;24.10;35.20;;;;;;6161314;28;20057;-48
2022/04/11 14:14:25;;;;;;;;;;;24.20;35.30;;;;;;6139647;28;19932;-47
2022/04/11 14:17:26;;;;;;;;;;;24.20;35.30;;;;;;6139121;27;19934;-47
2022/04/11 14:20:28;;;;;;;;;;;24.20;35.30;;;;;;6128822;28;24125;-46
2022/04/11 14:23:31;;;;;;;;;;;24.10;35.30;;;;;;6137539;28;19928;-44
2022/04/11 14:26:33;;;;;;;;;;;24.20;35.30;;;;;;6147618;28;19935;-47
2022/04/11 14:29:34;;;;;;;;;;;24.20;35.40;;;;;;6138555;27;20091;-47
2022/04/11 14:32:37;;;;;;;;;;;24.20;35.40;;;;;;6146560;27;21854;-45
2022/04/11 14:35:39;;;;;;;;;;;24.10;35.40;;;;;;6147184;28;20016;-49
2022/04/11 14:38:41;;;;;;;;;;;24.20;35.60;;;;;;6135826;27;19942;-48
2022/04/11 14:41:43;;;;;;;;;;;24.00;35.50;;;;;;6136903;27;19927;-45
2022/04/11 14:44:44;;;;;;;;;;;24.20;35.60;;;;;;6154705;27;20054;-57
2022/04/11 14:47:46;;;;;;;;;;;24.20;35.70;;;;;;6139668;27;20143;-48
2022/04/11 14:50:48;;;;;;;;;;;24.20;35.70;;;;;;6158480;27;20067;-44
2022/04/11 14:53:50;;;;;;;;;;;24.10;35.60;;;;;;6149524;27;21620;-46
2022/04/11 14:56:51;;;;;;;;;;;24.20;35.70;;;;;;6182796;27;20961;-45
2022/04/11 14:59:53;;;;;;;;;;;24.20;35.70;;;;;;6124056;27;21226;-47
2022/04/11 15:02:54;;;;;;;;;;;24.10;35.70;;;;;;6098761;28;21582;-45
2022/04/11 15:05:55;;;;;;;;;;;24.10;35.70;;;;;;6117615;28;19928;-46
2022/04/11 15:08:58;;;;;;;;;;;24.10;36.40;;;;;;6144110;28;19928;-47
2022/04/11 15:12:00;;;;;;;;;;;24.20;35.90;;;;;;6106945;28;19928;-45
2022/04/11 15:15:01;;;;;;;;;;;24.20;36.00;;;;;;6143635;27;19927;-47
2022/04/11 15:18:03;;;;;;;;;;;24.20;35.90;;;;;;6138067;27;20011;-47
2022/04/11 15:21:04;;;;;;;;;;;24.10;35.90;;;;;;6149384;27;19927;-47
2022/04/11 15:24:07;;;;;;;;;;;24.20;36.00;;;;;;6149084;27;19967;-46
2022/04/11 15:27:09;;;;;;;;;;;24.20;36.00;;;;;;6164688;27;19928;-45
2022/04/11 15:30:11;;;;;;;;;;;24.10;35.90;;;;;;6131571;27;19927;-47
2022/04/11 15:33:12;;;;;;;;;;;24.20;36.00;;;;;;6143889;28;21105;-47
2022/04/11 15:36:14;;;;;;;;;;;24.20;36.00;;;;;;6156007;27;21163;-48
2022/04/11 15:39:16;;;;;;;;;;;24.20;36.00;;;;;;6153430;27;19934;-46
2022/04/11 15:42:23;;;;;;;;;;;24.10;36.10;;;;;;6142402;28;20021;-46
2022/04/11 15:45:28;;;;;;;;;;;24.10;36.10;;;;;;6149680;28;21068;-48
2022/04/11 15:48:29;;;;;;;;;;;24.00;36.10;;;;;;6170399;27;20001;-46
2022/04/11 15:51:31;;;;;;;;;;;24.10;36.20;;;;;;6163389;27;19951;-45
2022/04/11 15:54:34;;;;;;;;;;;24.00;35.60;;;;;;6153325;28;19935;-51
2022/04/11 15:57:36;;;;;;;;;;;24.20;36.30;;;;;;6161977;28;19975;-47
2022/04/11 16:00:37;;;;;;;;;;;24.00;36.30;;;;;;6171661;27;19935;-51
2022/04/11 16:03:39;;;;;;;;;;;24.00;36.20;;;;;;6162642;27;20052;-51
2022/04/11 16:06:41;;;;;;;;;;;24.00;36.30;;;;;;6180956;28;20054;-47
2022/04/11 16:09:43;;;;;;;;;;;24.00;36.30;;;;;;6188872;28;19944;-46
2022/04/11 16:12:47;;;;;;;;;;;24.00;36.30;;;;;;6198566;28;19934;-47
2022/04/11 16:15:48;;;;;;;;;;;24.00;36.30;;;;;;6197801;28;22527;-48
2022/04/11 16:18:50;;;;;;;;;;;23.90;36.20;;;;;;6180883;27;21107;-49
2022/04/11 16:21:51;;;;;;;;;;;24.00;36.40;;;;;;6206094;27;20071;-48
2022/04/11 16:24:53;;;;;;;;;;;23.90;36.30;;;;;;6202894;27;19963;-47
2022/04/11 16:27:54;;;;;;;;;;;23.90;36.40;;;;;;6195468;28;19927;-55
2022/04/11 16:30:56;;;;;;;;;;;24.00;36.50;;;;;;6168923;28;21757;-46
2022/04/11 16:33:57;;;;;;;;;;;24.00;36.60;;;;;;6188813;27;19927;-50
2022/04/11 16:36:58;;;;;;;;;;;24.00;36.50;;;;;;6234778;27;20527;-55
2022/04/11 16:40:01;;;;;;;;;;;24.00;36.50;;;;;;6224884;27;20087;-46
2022/04/11 16:43:02;;;;;;;;;;;24.00;36.50;;;;;;6209916;28;20090;-47
2022/04/11 16:46:04;;;;;;;;;;;24.00;36.50;;;;;;6228161;27;20217;-48
2022/04/11 16:49:05;;;;;;;;;;;23.80;36.40;;;;;;6239973;27;19928;-52
2022/04/11 16:52:07;;;;;;;;;;;23.90;36.50;;;;;;6215716;27;20203;-46
2022/04/11 16:55:09;;;;;;;;;;;23.90;36.50;;;;;;6237660;27;20659;-47
2022/04/11 16:58:11;;;;;;;;;;;23.90;36.50;;;;;;6237201;27;19934;-47
2022/04/11 17:01:12;;;;;;;;;;;23.90;36.50;;;;;;6250479;27;19924;-46
2022/04/11 17:04:14;;;;;;;;;;;24.00;36.60;;;;;;6217710;27;20054;-48
2022/04/11 17:07:16;;;;;;;;;;;23.80;36.50;;;;;;6219791;28;20738;-48
2022/04/11 17:10:17;;;;;;;;;;;23.90;36.50;;;;;;6241253;28;20034;-47
2022/04/11 17:13:19;;;;;;;;;;;23.90;36.50;;;;;;6252178;28;19962;-52
2022/04/11 17:19:37;;;;;;;;;;;23.80;36.60;;;;;;6262413;28;19919;-46
2022/04/11 17:22:38;;;;;;;;;;;23.80;36.60;;;;;;6247574;28;20854;-49
2022/04/11 17:25:40;;;;;;;;;;;23.80;36.60;;;;;;6260954;27;19927;-47
2022/04/11 17:28:42;;;;;;;;;;;23.90;36.70;;;;;;6271465;27;19967;-50
2022/04/11 17:31:44;;;;;;;;;;;23.90;36.70;;;;;;6253433;28;20031;-49
2022/04/11 17:34:45;;;;;;;;;;;23.90;36.70;;;;;;6249170;28;19927;-47
2022/04/11 17:37:46;;;;;;;;;;;23.90;36.80;;;;;;6263710;27;20018;-48
2022/04/11 17:40:50;;;;;;;;;;;23.90;36.70;;;;;;6261392;27;19927;-47
2022/04/11 17:43:52;;;;;;;;;;;23.90;36.70;;;;;;6231724;27;20145;-45
2022/04/11 17:46:53;;;;;;;;;;;23.90;36.70;;;;;;6272255;27;20649;-49
2022/04/11 17:49:55;;;;;;;;;;;23.90;36.70;;;;;;6255261;27;20317;-48
2022/04/11 17:52:56;;;;;;;;;;;24.00;36.80;;;;;;6254693;28;19951;-46